createdAt,value
2019-01-20T00:01:44.600Z,-2.02
2019-01-20T00:04:48.252Z,-1.95
2019-01-20T00:07:52.119Z,-1.96
2019-01-20T00:10:55.981Z,-1.93
2019-01-20T00:13:59.711Z,-1.97
2019-01-20T00:17:03.306Z,-1.94
2019-01-20T00:20:07.468Z,-1.98
2019-01-20T00:23:11.110Z,-2.09
2019-01-20T00:26:14.806Z,-2.17
2019-01-20T00:29:18.616Z,-2.14
2019-01-20T00:32:22.329Z,-2.14
2019-01-20T00:35:26.091Z,-2.20
2019-01-20T00:38:30.026Z,-2.12
2019-01-20T00:41:33.665Z,-2.18
2019-01-20T00:44:37.458Z,-2.13
2019-01-20T00:47:41.311Z,-2.05
2019-01-20T00:50:45.364Z,-2.15
2019-01-20T00:53:48.957Z,-2.20
2019-01-20T00:56:52.711Z,-2.21
2019-01-20T00:59:56.368Z,-2.17
2019-01-20T01:03:00.673Z,-2.27
2019-01-20T01:06:04.314Z,-2.28
2019-01-20T01:09:08.859Z,-2.22
2019-01-20T01:12:16.768Z,-2.16
2019-01-20T01:15:21.265Z,-2.24
2019-01-20T01:18:25.200Z,-2.37
2019-01-20T01:21:28.949Z,-2.41
2019-01-20T01:24:32.621Z,-2.38
2019-01-20T01:27:36.437Z,-2.35
2019-01-20T01:30:40.421Z,-2.32
2019-01-20T01:33:44.227Z,-2.28
2019-01-20T01:36:47.921Z,-2.27
2019-01-20T01:39:51.565Z,-2.24
2019-01-20T01:42:55.538Z,-2.29
2019-01-20T01:45:59.875Z,-2.30
2019-01-20T01:49:03.463Z,-2.28
2019-01-20T01:52:07.340Z,-2.29
2019-01-20T01:55:11.558Z,-2.27
2019-01-20T01:58:15.210Z,-2.22
2019-01-20T02:01:19.009Z,-2.19
2019-01-20T02:04:22.559Z,-2.15
2019-01-20T02:07:26.305Z,-2.17
2019-01-20T02:10:30.117Z,-2.20
2019-01-20T02:13:33.876Z,-2.29
2019-01-20T02:16:37.686Z,-2.38
2019-01-20T02:19:41.424Z,-2.43
2019-01-20T02:22:45.358Z,-2.39
2019-01-20T02:25:49.009Z,-2.39
2019-01-20T02:28:52.613Z,-2.38
2019-01-20T02:31:56.169Z,-2.37
2019-01-20T02:34:59.885Z,-2.32
2019-01-20T02:38:03.602Z,-2.30
2019-01-20T02:41:07.276Z,-2.26
2019-01-20T02:44:11.727Z,-2.22
2019-01-20T02:47:15.473Z,-2.18
2019-01-20T02:50:19.279Z,-2.21
2019-01-20T02:53:23.657Z,-2.23
2019-01-20T02:56:27.423Z,-2.24
2019-01-20T02:59:30.931Z,-2.22
2019-01-20T03:02:34.518Z,-2.28
2019-01-20T03:05:38.133Z,-2.33
2019-01-20T03:08:41.972Z,-2.34
2019-01-20T03:11:45.566Z,-2.37
2019-01-20T03:14:49.165Z,-2.34
2019-01-20T03:17:52.873Z,-2.26
2019-01-20T03:20:56.521Z,-2.22
2019-01-20T03:24:00.220Z,-2.15
2019-01-20T03:27:04.037Z,-2.17
2019-01-20T03:30:10.843Z,-2.10
2019-01-20T03:33:14.495Z,-2.13
2019-01-20T03:36:18.216Z,-2.10
2019-01-20T03:39:21.847Z,-2.05
2019-01-20T03:42:25.650Z,-1.99
2019-01-20T03:45:31.328Z,-1.95
2019-01-20T03:48:35.148Z,-1.96
2019-01-20T03:51:38.892Z,-1.99
2019-01-20T03:54:42.541Z,-1.99
2019-01-20T03:57:46.338Z,-1.96
2019-01-20T04:00:50.062Z,-1.97
2019-01-20T04:03:54.460Z,-2.00
2019-01-20T04:06:58.628Z,-2.03
2019-01-20T04:10:02.438Z,-2.10
2019-01-20T04:13:06.999Z,-2.08
2019-01-20T04:16:10.805Z,-2.16
2019-01-20T04:19:14.556Z,-2.18
2019-01-20T04:22:18.229Z,-2.18
2019-01-20T04:25:22.371Z,-2.14
2019-01-20T04:28:26.404Z,-2.09
2019-01-20T04:31:30.103Z,-2.04
2019-01-20T04:34:33.786Z,-2.06
2019-01-20T04:37:37.464Z,-2.01
2019-01-20T04:40:41.096Z,-1.91
2019-01-20T04:43:45.062Z,-1.85
2019-01-20T04:46:48.730Z,-1.83
2019-01-20T04:49:52.884Z,-1.87
2019-01-20T04:52:56.521Z,-1.88
2019-01-20T04:56:00.110Z,-1.84
2019-01-20T04:59:04.111Z,-1.91
2019-01-20T05:02:07.853Z,-1.92
2019-01-20T05:05:11.703Z,-1.99
2019-01-20T05:08:15.379Z,-1.99
2019-01-20T05:11:19.010Z,-1.99
2019-01-20T05:14:22.895Z,-2.01
2019-01-20T05:17:26.606Z,-2.03
2019-01-20T05:20:30.202Z,-2.06
2019-01-20T05:23:33.811Z,-2.08
2019-01-20T05:26:37.419Z,-2.00
2019-01-20T05:29:41.038Z,-2.04
2019-01-20T05:32:44.824Z,-2.09
2019-01-20T05:35:48.567Z,-2.11
2019-01-20T05:38:52.139Z,-2.08
2019-01-20T05:41:55.743Z,-2.09
2019-01-20T05:44:59.452Z,-2.09
2019-01-20T05:48:03.048Z,-2.27
2019-01-20T05:51:06.741Z,-2.53
2019-01-20T05:54:10.405Z,-2.66
2019-01-20T05:57:14.112Z,-2.71
2019-01-20T06:00:21.123Z,-2.69
2019-01-20T06:03:24.870Z,-2.59
2019-01-20T06:06:28.440Z,-2.70
2019-01-20T06:09:32.081Z,-2.63
2019-01-20T06:12:35.725Z,-2.70
2019-01-20T06:15:39.372Z,-2.71
2019-01-20T06:18:42.985Z,-2.76
2019-01-20T06:21:46.647Z,-2.80
2019-01-20T06:24:50.236Z,-2.94
2019-01-20T06:27:53.796Z,-3.06
2019-01-20T06:30:57.552Z,-3.08
2019-01-20T06:34:01.237Z,-3.01
2019-01-20T06:37:04.985Z,-2.87
2019-01-20T06:40:08.801Z,-2.79
2019-01-20T06:43:12.460Z,-2.71
2019-01-20T06:46:16.091Z,-2.67
2019-01-20T06:49:19.712Z,-2.62
2019-01-20T06:52:23.500Z,-2.56
2019-01-20T06:55:27.273Z,-2.56
2019-01-20T06:58:30.859Z,-2.58
2019-01-20T07:01:35.562Z,-2.58
2019-01-20T07:04:39.109Z,-2.56
2019-01-20T07:07:42.800Z,-2.65
2019-01-20T07:10:46.494Z,-2.78
2019-01-20T07:13:50.123Z,-2.74
2019-01-20T07:16:53.709Z,-2.72
2019-01-20T07:19:57.436Z,-2.92
2019-01-20T07:23:01.620Z,-2.94
2019-01-20T07:26:05.392Z,-2.88
2019-01-20T07:29:09.005Z,-2.83
2019-01-20T07:32:12.571Z,-2.77
2019-01-20T07:35:16.308Z,-2.74
2019-01-20T07:38:19.899Z,-2.63
2019-01-20T07:41:23.509Z,-2.58
2019-01-20T07:44:27.109Z,-2.55
2019-01-20T07:47:30.714Z,-2.51
2019-01-20T07:50:34.358Z,-2.46
2019-01-20T07:53:37.959Z,-2.44
2019-01-20T07:56:41.557Z,-2.46
2019-01-20T07:59:45.946Z,-2.58
2019-01-20T08:02:49.644Z,-2.80
2019-01-20T08:05:53.403Z,-3.04
2019-01-20T08:08:57.131Z,-2.96
2019-01-20T08:12:00.634Z,-2.96
2019-01-20T08:15:04.747Z,-2.92
2019-01-20T08:18:08.276Z,-2.82
2019-01-20T08:21:11.908Z,-2.70
2019-01-20T08:24:15.479Z,-2.54
2019-01-20T08:27:19.068Z,-2.44
2019-01-20T08:30:24.737Z,-2.43
2019-01-20T08:33:28.225Z,-2.42
2019-01-20T08:36:31.852Z,-2.30
2019-01-20T08:39:35.602Z,-2.25
2019-01-20T08:42:40.185Z,-2.21
2019-01-20T08:46:15.658Z,-2.19
2019-01-20T08:49:19.653Z,-2.13
2019-01-20T08:52:23.472Z,-2.12
2019-01-20T08:55:27.202Z,-2.31
2019-01-20T08:58:30.871Z,-2.42
2019-01-20T09:01:34.551Z,-2.63
2019-01-20T09:04:38.260Z,-2.62
2019-01-20T09:07:41.907Z,-2.57
2019-01-20T09:10:45.500Z,-2.60
2019-01-20T09:13:49.127Z,-2.64
2019-01-20T09:16:52.842Z,-2.54
2019-01-20T09:19:56.507Z,-2.52
2019-01-20T09:23:00.212Z,-2.51
2019-01-20T09:26:03.971Z,-2.43
2019-01-20T09:29:09.356Z,-2.37
2019-01-20T09:32:13.354Z,-2.29
2019-01-20T09:35:17.136Z,-2.20
2019-01-20T09:38:20.865Z,-2.26
2019-01-20T09:41:24.521Z,-2.23
2019-01-20T09:44:28.119Z,-2.15
2019-01-20T09:47:31.824Z,-2.10
2019-01-20T09:50:35.517Z,-2.02
2019-01-20T09:53:41.599Z,-1.79
2019-01-20T09:56:45.475Z,-1.58
2019-01-20T09:59:49.232Z,-1.34
2019-01-20T10:02:53.427Z,-1.20
2019-01-20T10:06:02.389Z,-1.10
2019-01-20T10:09:11.561Z,-1.03
2019-01-20T10:12:15.398Z,-0.91
2019-01-20T10:15:20.817Z,-0.82
2019-01-20T10:18:26.547Z,-0.82
2019-01-20T10:21:30.229Z,-0.77
2019-01-20T10:24:33.826Z,-0.74
2019-01-20T10:27:37.573Z,-0.83
2019-01-20T10:30:41.175Z,-0.89
2019-01-20T10:33:45.177Z,-0.91
2019-01-20T10:36:49.042Z,-0.89
2019-01-20T10:39:52.841Z,-0.90
2019-01-20T10:42:56.621Z,-0.73
2019-01-20T10:56:34.149Z,-0.44
2019-01-20T10:59:37.925Z,-0.31
2019-01-20T11:02:41.607Z,-0.22
2019-01-20T11:05:45.462Z,-0.11
2019-01-20T11:08:53.340Z,-0.02
2019-01-20T11:11:59.962Z,0.13
2019-01-20T11:15:04.075Z,0.25
2019-01-20T11:18:07.750Z,0.32
2019-01-20T11:21:11.443Z,0.36
2019-01-20T11:24:15.116Z,0.45
2019-01-20T11:27:18.989Z,0.45
2019-01-20T11:30:22.671Z,0.56
2019-01-20T11:33:28.424Z,0.56
2019-01-20T11:36:37.831Z,0.83
2019-01-20T11:39:46.576Z,0.96
2019-01-20T11:42:52.779Z,0.79
2019-01-20T11:45:56.635Z,0.82
2019-01-20T11:49:07.132Z,1.01
2019-01-20T11:52:17.074Z,0.96
2019-01-20T11:55:26.753Z,0.90
2019-01-20T11:58:34.119Z,0.81
2019-01-20T12:01:41.448Z,0.71
2019-01-20T12:04:49.377Z,0.78
2019-01-20T12:07:54.242Z,0.74
2019-01-20T12:10:56.610Z,0.72
2019-01-20T12:14:00.200Z,0.62
2019-01-20T12:17:03.856Z,0.67
2019-01-20T12:20:08.465Z,0.71
2019-01-20T12:23:12.064Z,0.71
2019-01-20T12:26:15.802Z,0.84
2019-01-20T12:29:19.501Z,0.83
2019-01-20T12:32:23.074Z,0.75
2019-01-20T12:35:26.708Z,0.61
2019-01-20T12:38:30.291Z,0.71
2019-01-20T12:41:33.882Z,0.80
2019-01-20T12:44:37.486Z,0.82
2019-01-20T12:47:41.135Z,0.77
2019-01-20T12:50:44.725Z,0.83
2019-01-20T12:53:48.320Z,0.82
2019-01-20T12:56:51.967Z,0.63
2019-01-20T12:59:56.567Z,0.61
2019-01-20T13:03:00.339Z,0.78
2019-01-20T13:06:03.968Z,0.98
2019-01-20T13:09:08.969Z,0.55
2019-01-20T13:12:12.650Z,0.53
2019-01-20T13:15:20.071Z,0.56
2019-01-20T13:18:23.745Z,0.60
2019-01-20T13:21:27.356Z,0.44
2019-01-20T13:24:30.943Z,0.44
2019-01-20T13:27:34.528Z,0.49
2019-01-20T13:30:38.187Z,0.52
2019-01-20T13:33:41.885Z,0.54
2019-01-20T13:36:45.933Z,0.65
2019-01-20T13:39:49.591Z,0.76
2019-01-20T13:42:53.176Z,0.56
2019-01-20T13:45:56.914Z,0.49
2019-01-20T13:49:02.503Z,0.50
2019-01-20T13:52:06.469Z,0.52
2019-01-20T13:55:10.388Z,0.51
2019-01-20T13:58:13.934Z,0.57
2019-01-20T14:01:17.564Z,0.56
2019-01-20T14:04:21.172Z,0.44
2019-01-20T14:07:24.779Z,0.55
2019-01-20T14:10:28.648Z,0.62
2019-01-20T14:13:32.244Z,0.61
2019-01-20T14:16:35.870Z,0.67
2019-01-20T14:19:39.535Z,0.72
2019-01-20T14:22:43.178Z,0.70
2019-01-20T14:25:46.927Z,0.78
2019-01-20T14:28:50.570Z,0.73
2019-01-20T14:31:54.129Z,0.73
2019-01-20T14:34:57.796Z,0.76
2019-01-20T14:38:01.434Z,0.70
2019-01-20T14:41:05.097Z,0.80
2019-01-20T14:44:10.737Z,0.84
2019-01-20T14:47:15.454Z,0.91
2019-01-20T14:50:22.064Z,0.83
2019-01-20T14:53:25.722Z,0.81
2019-01-20T14:56:29.382Z,0.81
2019-01-20T14:59:33.054Z,0.85
2019-01-20T15:02:36.663Z,0.82
2019-01-20T15:05:40.346Z,0.81
2019-01-20T15:08:43.945Z,0.93
2019-01-20T15:11:47.557Z,0.94
2019-01-20T15:14:51.191Z,0.90
2019-01-20T15:17:54.821Z,0.94
2019-01-20T15:20:58.404Z,0.87
2019-01-20T15:24:01.988Z,0.88
2019-01-20T15:27:05.643Z,0.87
2019-01-20T15:30:14.071Z,0.89
2019-01-20T15:33:17.632Z,0.90
2019-01-20T15:36:21.135Z,0.90
2019-01-20T15:39:24.746Z,0.87
2019-01-20T15:42:28.372Z,0.87
2019-01-20T15:45:31.937Z,0.79
2019-01-20T15:52:05.911Z,0.86
2019-01-20T15:55:09.560Z,0.79
2019-01-20T15:58:13.270Z,0.80
2019-01-20T16:01:16.896Z,0.81
2019-01-20T16:04:24.071Z,0.80
2019-01-20T16:07:24.118Z,0.82
2019-01-20T16:10:28.233Z,0.83
2019-01-20T16:13:31.942Z,0.79
2019-01-20T16:16:35.582Z,0.80
2019-01-20T16:19:41.803Z,0.82
2019-01-20T16:22:46.419Z,0.83
2019-01-20T16:25:51.725Z,0.82
2019-01-20T16:28:55.418Z,0.83
2019-01-20T16:31:59.122Z,0.81
2019-01-20T16:35:02.782Z,0.81
2019-01-20T16:38:08.021Z,0.81
2019-01-20T16:41:11.727Z,0.76
2019-01-20T16:44:15.505Z,0.65
2019-01-20T16:47:19.133Z,0.56
2019-01-20T16:50:23.754Z,0.56
2019-01-20T16:53:27.321Z,0.60
2019-01-20T16:56:31.118Z,0.62
2019-01-20T16:59:34.817Z,0.51
2019-01-20T17:02:38.436Z,0.43
2019-01-20T17:05:42.115Z,0.41
2019-01-20T17:08:45.723Z,0.46
2019-01-20T17:11:49.288Z,0.54
2019-01-20T17:14:52.898Z,0.51
2019-01-20T17:17:56.613Z,0.55
2019-01-20T17:24:38.071Z,0.58
2019-01-20T17:31:15.455Z,0.57
2019-01-20T17:34:26.317Z,0.59
2019-01-20T17:37:32.627Z,0.70
2019-01-20T17:40:36.388Z,0.64
2019-01-20T17:43:41.633Z,0.60
2019-01-20T17:46:47.137Z,0.54
2019-01-20T17:49:53.654Z,0.50
2019-01-20T17:52:58.449Z,0.51
2019-01-20T17:56:02.101Z,0.52
2019-01-20T17:59:05.785Z,0.43
2019-01-20T18:02:09.566Z,0.38
2019-01-20T18:05:14.125Z,0.30
2019-01-20T18:08:17.883Z,0.34
2019-01-20T18:11:21.471Z,0.28
2019-01-20T18:14:25.638Z,0.33
2019-01-20T18:17:31.347Z,0.37
2019-01-20T18:20:34.983Z,0.24
2019-01-20T18:23:39.606Z,0.11
2019-01-20T18:26:43.232Z,0.08
2019-01-20T18:29:47.402Z,0.03
2019-01-20T18:32:52.984Z,-0.01
2019-01-20T18:35:56.618Z,-0.06
2019-01-20T18:39:00.245Z,-0.06
2019-01-20T18:42:03.940Z,-0.09
2019-01-20T18:45:08.619Z,-0.16
2019-01-20T18:48:12.242Z,-0.20
2019-01-20T18:51:15.897Z,-0.28
2019-01-20T18:54:19.503Z,-0.24
2019-01-20T18:57:23.110Z,-0.24
2019-01-20T19:00:31.152Z,-0.30
2019-01-20T19:03:36.093Z,-0.36
2019-01-20T19:06:39.785Z,-0.47
2019-01-20T19:09:43.534Z,-0.47
2019-01-20T19:12:47.331Z,-0.48
2019-01-20T19:15:50.931Z,-0.45
2019-01-20T19:18:54.722Z,-0.51
2019-01-20T19:22:00.346Z,-0.49
2019-01-20T19:25:04.117Z,-0.40
2019-01-20T19:35:18.444Z,-0.55
2019-01-20T19:38:22.187Z,-0.39
2019-01-20T19:41:25.720Z,-0.48
2019-01-20T19:44:29.322Z,-0.54
2019-01-20T19:47:32.950Z,-0.58
2019-01-20T19:50:36.775Z,-0.63
2019-01-20T19:53:40.496Z,-0.69
2019-01-20T19:56:44.174Z,-0.62
2019-01-20T19:59:47.902Z,-0.57
2019-01-20T20:02:51.646Z,-0.62
2019-01-20T20:05:55.271Z,-0.66
2019-01-20T20:08:58.853Z,-0.68
2019-01-20T20:12:02.449Z,-0.73
2019-01-20T20:15:08.280Z,-0.70
2019-01-20T20:18:12.011Z,-0.73
2019-01-20T20:21:15.749Z,-0.69
2019-01-20T20:24:25.298Z,-0.73
2019-01-20T20:27:23.031Z,-0.68
2019-01-20T20:30:29.043Z,-0.74
2019-01-20T20:33:33.267Z,-0.73
2019-01-20T20:36:38.746Z,-0.76
2019-01-20T20:39:42.349Z,-0.74
2019-01-20T20:42:46.065Z,-0.72
2019-01-20T20:45:49.591Z,-0.77
2019-01-20T20:48:53.222Z,-0.87
2019-01-20T20:51:56.906Z,-0.84
2019-01-20T20:55:01.523Z,-0.79
2019-01-20T20:58:05.422Z,-0.97
2019-01-20T21:01:10.019Z,-0.94
2019-01-20T21:04:13.594Z,-0.87
2019-01-20T21:07:17.201Z,-0.87
2019-01-20T21:10:23.872Z,-0.87
2019-01-20T21:13:27.538Z,-0.89
2019-01-20T21:16:37.669Z,-0.88
2019-01-20T21:19:34.875Z,-0.99
2019-01-20T21:22:38.637Z,-0.94
2019-01-20T21:25:43.165Z,-0.96
2019-01-20T21:28:47.720Z,-1.03
2019-01-20T21:31:51.190Z,-1.06
2019-01-20T21:34:57.845Z,-1.05
2019-01-20T21:38:07.408Z,-1.02
2019-01-20T21:41:12.667Z,-1.03
2019-01-20T21:44:15.077Z,-1.05
2019-01-20T21:47:18.616Z,-1.06
2019-01-20T21:50:24.494Z,-1.06
2019-01-20T21:53:28.047Z,-1.02
2019-01-20T21:56:36.502Z,-1.05
2019-01-20T21:59:40.193Z,-0.99
2019-01-20T22:02:45.046Z,-1.06
2019-01-20T22:05:48.913Z,-1.02
2019-01-20T22:08:52.551Z,-1.13
2019-01-20T22:11:56.217Z,-1.15
2019-01-20T22:14:59.814Z,-1.14
2019-01-20T22:21:12.341Z,-1.01
2019-01-20T22:24:16.923Z,-1.05
2019-01-20T22:27:20.517Z,-1.08
2019-01-20T22:30:26.040Z,-1.19
2019-01-20T22:33:30.566Z,-1.21
2019-01-20T22:36:34.267Z,-1.20
2019-01-20T22:39:37.890Z,-1.13
2019-01-20T22:42:41.487Z,-1.19
2019-01-20T22:45:45.201Z,-1.21
2019-01-20T22:48:48.865Z,-1.23
2019-01-20T22:55:23.624Z,-1.16
2019-01-20T22:58:27.242Z,-1.23
2019-01-20T23:01:30.890Z,-1.40
2019-01-20T23:04:34.586Z,-1.44
2019-01-20T23:07:38.173Z,-1.39
2019-01-20T23:10:41.818Z,-1.40
2019-01-20T23:13:45.545Z,-1.37
2019-01-20T23:16:49.424Z,-1.34
2019-01-20T23:19:53.140Z,-1.33
2019-01-20T23:22:56.713Z,-1.26
2019-01-20T23:26:00.357Z,-1.34
2019-01-20T23:29:04.201Z,-1.40
2019-01-20T23:32:07.864Z,-1.47
2019-01-20T23:35:11.515Z,-1.42
2019-01-20T23:38:15.282Z,-1.33
2019-01-20T23:41:18.956Z,-1.38
2019-01-20T23:44:23.039Z,-1.38
2019-01-20T23:47:26.687Z,-1.34
2019-01-20T23:50:30.285Z,-1.43
2019-01-20T23:53:33.987Z,-1.47
2019-01-20T23:56:37.668Z,-1.77
2019-01-20T23:59:41.258Z,-1.87
